Ayr Dpi Research Station, Australia

8:53 PM AEST on February 28, 2017 (GMT +1000)
Ayr's live weather | | Change Station

Elev 45 ft 19.58 °S, 147.42 °E | Updated 5 seconds ago

Clear
Clear
80.8 °F
Feels Like 86 °F
N
6.0
Wind Variable Wind from East
Gusts 7.0 mph

Today
High -- | Low -- °F
--% Chance of Precip.
Yesterday
High -- | Low -- °F
Precip. -- in
Pressure 29.86 in
Visibility 6.2 miles
Clouds
Heat Index 86 °F
Dew Point 74 °F
Humidity 80%
Rainfall 0.00 in
Snow Depth Not available.
6:07 AM 6:37 PM
Waxing Crescent, 4% visible
METAR YBTL 281030Z AUTO 11010KT 9999 // NCD 28/21 Q1011
Pressure 29.86 in
Visibility 6.2 miles
Clouds
Heat Index 86 °F
Dew Point 74 °F
Humidity 80%
Rainfall 0.00 in
Snow Depth Not available.
6:07 AM 6:37 PM
Waxing Crescent, 4% visible
METAR YBTL 281030Z AUTO 11010KT 9999 // NCD 28/21 Q1011

Get Your Daily Forecast Email!

Thanks for signing up!

Be on the lookout for a verification email in your inbox.

You'll start receiving the daily forecast at 8 AM.

×

10-Day Weather Forecast

×

Almanac

Astronomy

Feb. 28, 2017 Rise Set
Actual Time
Civil Twilight
Nautical Twilight
Astronomical Twilight
Moon
Length of Visible Light
Length of Day
Tomorrow will be .
, % of the Moon is Illuminated

Today's Extremes

Country Highs Country Lows

Community

WunderPhotos

Upload Photos

1,962,540 photos uploaded!

WunderBlog® & News

Nearby

Air Quality

  Air Quality AQ Index Pollutant
Not available.

Snow Depth

Station Depth Elevation

Earthquake Activity

City Distance Mag. Time & Date
Minimum magnitude displayed is 2.5.

Coastal Water Temperatures

Place Temperature

Stations

Nearby Weather Stations

Station Location Temp. Windchill Dew Point Humidity Wind Precip. Elev Updated Type